createdAt,value
2018-08-17T00:01:34.829Z,4.57
2018-08-17T00:04:04.419Z,5.20
2018-08-17T00:06:33.898Z,4.80
2018-08-17T00:09:03.541Z,4.97
2018-08-17T00:11:32.993Z,4.90
2018-08-17T00:14:02.473Z,5.20
2018-08-17T00:16:31.951Z,5.30
2018-08-17T00:19:02.022Z,5.63
2018-08-17T00:21:31.558Z,5.90
2018-08-17T00:24:01.080Z,5.17
2018-08-17T00:26:30.781Z,5.70
2018-08-17T00:29:00.301Z,5.00
2018-08-17T00:31:29.864Z,5.33
2018-08-17T00:33:59.330Z,5.40
2018-08-17T00:36:29.216Z,5.20
2018-08-17T00:38:58.839Z,6.23
2018-08-17T00:41:28.282Z,5.50
2018-08-17T00:43:57.751Z,5.90
2018-08-17T00:46:27.182Z,5.93
2018-08-17T00:48:56.602Z,5.80
2018-08-17T00:51:25.998Z,5.63
2018-08-17T00:53:55.635Z,6.10
2018-08-17T00:56:25.011Z,6.17
2018-08-17T00:58:54.797Z,6.03
2018-08-17T01:01:24.284Z,5.57
2018-08-17T01:03:53.837Z,6.57
2018-08-17T01:06:23.263Z,6.17
2018-08-17T01:08:52.699Z,5.80
2018-08-17T01:11:22.151Z,6.23
2018-08-17T01:13:51.612Z,6.00
2018-08-17T01:16:21.383Z,5.87
2018-08-17T01:18:50.838Z,6.00
2018-08-17T01:21:20.251Z,6.30
2018-08-17T01:23:49.734Z,6.43
2018-08-17T01:26:19.164Z,5.67
2018-08-17T01:28:49.026Z,6.10
2018-08-17T01:31:18.815Z,6.47
2018-08-17T01:33:48.277Z,6.77
2018-08-17T01:36:17.744Z,6.47
2018-08-17T01:38:47.212Z,6.33
2018-08-17T01:41:16.647Z,6.40
2018-08-17T01:43:46.094Z,6.30
2018-08-17T01:46:15.560Z,6.60
2018-08-17T01:48:44.990Z,6.87
2018-08-17T01:51:14.453Z,6.77
2018-08-17T01:53:44.058Z,6.70
2018-08-17T01:56:13.551Z,6.77
2018-08-17T01:58:43.029Z,6.47
2018-08-17T02:01:12.477Z,6.57
2018-08-17T02:03:41.932Z,6.60
2018-08-17T02:06:11.668Z,6.70
2018-08-17T02:08:41.167Z,6.60
2018-08-17T02:11:10.600Z,6.83
2018-08-17T02:13:40.080Z,6.70
2018-08-17T02:16:09.763Z,6.50
2018-08-17T02:18:39.195Z,6.53
2018-08-17T02:21:08.700Z,6.63
2018-08-17T02:23:38.119Z,6.63
2018-08-17T02:26:07.609Z,7.17
2018-08-17T02:28:37.109Z,7.00
2018-08-17T02:31:06.631Z,7.07
2018-08-17T02:33:36.026Z,7.80
2018-08-17T02:36:05.541Z,7.90
2018-08-17T02:38:35.043Z,7.23
2018-08-17T02:41:04.814Z,7.30
2018-08-17T02:43:34.251Z,7.20
2018-08-17T02:46:03.735Z,7.30
2018-08-17T02:48:33.365Z,7.67
2018-08-17T02:51:02.822Z,7.43
2018-08-17T02:53:32.238Z,7.23
2018-08-17T02:56:01.681Z,6.77
2018-08-17T02:58:31.155Z,7.23
2018-08-17T03:01:00.591Z,7.40
2018-08-17T03:03:30.580Z,7.80
2018-08-17T03:05:59.990Z,7.77
2018-08-17T03:08:29.691Z,7.23
2018-08-17T03:11:00.068Z,7.70
2018-08-17T03:13:29.557Z,7.63
2018-08-17T03:15:59.035Z,8.00
2018-08-17T03:18:28.541Z,7.70
2018-08-17T03:20:57.989Z,7.30
2018-08-17T03:23:27.469Z,7.97
2018-08-17T03:25:56.911Z,7.37
2018-08-17T03:28:26.341Z,7.23
2018-08-17T03:30:55.786Z,7.63
2018-08-17T03:33:25.202Z,7.43
2018-08-17T03:35:54.624Z,7.70
2018-08-17T03:38:24.029Z,7.57
2018-08-17T03:40:53.470Z,7.80
2018-08-17T03:43:22.871Z,7.10
2018-08-17T03:45:52.316Z,7.13
2018-08-17T03:48:21.783Z,7.80
2018-08-17T03:50:51.187Z,7.73
2018-08-17T03:53:20.635Z,7.60
2018-08-17T03:55:50.054Z,6.90
2018-08-17T03:58:19.481Z,7.53
2018-08-17T04:00:48.907Z,7.73
2018-08-17T04:03:18.303Z,7.03
2018-08-17T04:05:47.777Z,7.67
2018-08-17T04:08:17.184Z,7.93
2018-08-17T04:10:47.020Z,7.70
2018-08-17T04:13:16.481Z,7.63
2018-08-17T04:15:46.298Z,7.30
2018-08-17T04:18:15.750Z,7.93
2018-08-17T04:20:45.357Z,7.50
2018-08-17T04:23:14.802Z,8.07
2018-08-17T04:25:44.229Z,7.80
2018-08-17T04:28:13.744Z,8.63
2018-08-17T04:30:43.164Z,8.50
2018-08-17T04:33:12.752Z,8.60
2018-08-17T04:35:42.637Z,9.43
2018-08-17T04:38:12.110Z,9.00
2018-08-17T04:40:41.677Z,9.23
2018-08-17T04:43:11.080Z,9.97
2018-08-17T04:45:40.593Z,10.03
2018-08-17T04:48:10.259Z,10.43
2018-08-17T04:50:40.075Z,12.60
2018-08-17T04:53:09.588Z,11.90
2018-08-17T04:55:39.131Z,13.40
2018-08-17T04:58:08.618Z,15.33
2018-08-17T05:00:38.050Z,15.70
2018-08-17T05:03:07.960Z,15.47
2018-08-17T05:05:37.367Z,16.40
2018-08-17T05:08:06.927Z,15.60
2018-08-17T05:10:36.350Z,16.77
2018-08-17T05:13:05.437Z,18.43
2018-08-17T05:15:34.917Z,17.73
2018-08-17T05:18:04.342Z,17.67
2018-08-17T05:20:33.808Z,18.77
2018-08-17T05:23:03.227Z,16.60
2018-08-17T05:25:32.723Z,17.33
2018-08-17T05:28:02.134Z,18.47
2018-08-17T05:30:31.611Z,17.30
2018-08-17T05:33:01.116Z,18.93
2018-08-17T05:35:30.670Z,19.37
2018-08-17T05:38:00.096Z,18.93
2018-08-17T05:40:29.967Z,20.90
2018-08-17T05:42:59.473Z,23.47
2018-08-17T05:45:28.908Z,22.77
2018-08-17T05:47:58.421Z,21.43
2018-08-17T05:50:32.438Z,22.20
2018-08-17T05:53:02.806Z,22.60
2018-08-17T05:55:32.228Z,23.73
2018-08-17T05:58:01.672Z,22.67
2018-08-17T06:00:31.202Z,24.37
2018-08-17T06:03:00.625Z,24.30
2018-08-17T06:05:30.188Z,24.80
2018-08-17T06:07:59.644Z,25.53
2018-08-17T06:10:29.066Z,28.23
2018-08-17T06:12:58.975Z,27.73
2018-08-17T06:15:28.616Z,29.20
2018-08-17T06:17:58.343Z,28.70
2018-08-17T06:20:28.495Z,30.87
2018-08-17T06:22:58.442Z,29.67
2018-08-17T06:25:27.955Z,29.33
2018-08-17T06:27:57.510Z,29.83
2018-08-17T06:30:26.965Z,30.73
2018-08-17T06:32:56.416Z,31.33
2018-08-17T06:35:25.850Z,32.50
2018-08-17T06:37:55.842Z,32.50
2018-08-17T06:40:25.248Z,34.77
2018-08-17T06:42:55.011Z,36.23
2018-08-17T06:45:24.462Z,35.60
2018-08-17T06:47:53.910Z,37.47
2018-08-17T06:50:23.315Z,38.70
2018-08-17T06:52:52.744Z,37.87
2018-08-17T06:55:22.146Z,40.53
2018-08-17T06:57:51.576Z,43.53
2018-08-17T07:00:21.376Z,45.60
2018-08-17T07:02:50.386Z,51.83
2018-08-17T07:05:19.842Z,54.70
2018-08-17T07:07:49.324Z,53.33
2018-08-17T07:10:18.871Z,56.30
2018-08-17T07:12:48.309Z,58.10
2018-08-17T07:15:17.742Z,63.97
2018-08-17T07:17:47.185Z,58.30
2018-08-17T07:20:16.649Z,58.60
2018-08-17T07:22:46.091Z,58.27
2018-08-17T07:25:15.549Z,57.67
2018-08-17T07:27:45.047Z,54.03
2018-08-17T07:30:14.960Z,56.77
2018-08-17T07:32:44.417Z,54.43
2018-08-17T07:35:13.897Z,54.40
2018-08-17T07:37:43.361Z,55.97
2018-08-17T07:40:12.873Z,51.60
2018-08-17T07:42:42.369Z,52.53
2018-08-17T07:45:11.810Z,50.80
2018-08-17T07:47:41.282Z,49.97
2018-08-17T07:50:15.016Z,49.03
2018-08-17T07:52:44.636Z,48.80
2018-08-17T07:55:14.046Z,49.87
2018-08-17T07:57:43.818Z,47.87
2018-08-17T08:00:13.900Z,46.83
2018-08-17T08:02:43.352Z,49.23
2018-08-17T08:05:12.845Z,46.13
2018-08-17T08:07:42.856Z,46.57
2018-08-17T08:10:12.711Z,44.87
2018-08-17T08:12:42.067Z,44.67
2018-08-17T08:15:11.135Z,45.33
2018-08-17T08:17:40.295Z,42.27
2018-08-17T08:20:20.760Z,41.77
2018-08-17T08:23:00.005Z,40.63
2018-08-17T08:25:29.434Z,39.57
2018-08-17T08:27:58.591Z,39.40
2018-08-17T08:30:27.860Z,39.20
2018-08-17T08:32:56.915Z,39.87
2018-08-17T08:35:26.040Z,36.63
2018-08-17T08:37:55.479Z,35.47
2018-08-17T08:40:24.642Z,34.97
2018-08-17T08:42:54.241Z,33.27
2018-08-17T08:45:23.867Z,34.00
2018-08-17T08:47:53.110Z,33.83
2018-08-17T08:50:22.268Z,31.43
2018-08-17T08:52:51.475Z,29.43
2018-08-17T08:55:20.909Z,30.90
2018-08-17T08:57:49.977Z,29.83
2018-08-17T09:00:19.176Z,27.13
2018-08-17T09:02:48.602Z,28.70
2018-08-17T09:05:17.715Z,28.43
2018-08-17T09:07:46.796Z,26.50
2018-08-17T09:10:15.820Z,25.40
2018-08-17T09:12:45.039Z,25.37
2018-08-17T09:15:14.627Z,24.67
2018-08-17T09:17:44.114Z,25.97
2018-08-17T09:20:17.689Z,24.20
2018-08-17T09:22:46.835Z,23.50
2018-08-17T09:25:15.931Z,24.87
2018-08-17T09:27:44.989Z,23.43
2018-08-17T09:30:15.175Z,22.13
2018-08-17T09:32:44.545Z,22.70
2018-08-17T09:35:14.179Z,23.17
2018-08-17T09:37:43.739Z,21.80
2018-08-17T09:40:12.871Z,20.47
2018-08-17T09:42:41.903Z,20.83
2018-08-17T09:45:12.350Z,20.13
2018-08-17T09:47:41.506Z,19.00
2018-08-17T09:50:13.005Z,19.60
2018-08-17T09:52:42.100Z,19.87
2018-08-17T09:55:12.317Z,20.40
2018-08-17T09:57:41.597Z,17.67
2018-08-17T10:00:11.479Z,18.73
2018-08-17T10:02:45.865Z,17.33
2018-08-17T10:05:20.657Z,17.67
2018-08-17T10:07:55.117Z,18.60
2018-08-17T10:10:25.485Z,16.93
2018-08-17T10:12:54.679Z,17.20
2018-08-17T10:15:23.807Z,17.03
2018-08-17T10:17:53.078Z,15.40
2018-08-17T10:20:23.418Z,16.37
2018-08-17T10:22:52.460Z,15.03
2018-08-17T10:25:24.856Z,13.97
2018-08-17T10:27:56.478Z,14.53
2018-08-17T10:30:25.919Z,15.20
2018-08-17T10:32:59.566Z,13.53
2018-08-17T10:35:32.954Z,13.30
2018-08-17T10:38:03.291Z,12.93
2018-08-17T10:40:32.480Z,13.03
2018-08-17T10:43:02.658Z,12.40
2018-08-17T10:45:32.496Z,11.77
2018-08-17T10:48:01.708Z,12.57
2018-08-17T10:50:32.889Z,11.87
2018-08-17T10:53:03.653Z,11.43
2018-08-17T10:55:39.812Z,10.40
2018-08-17T10:58:10.798Z,11.40
2018-08-17T11:00:39.997Z,11.30
2018-08-17T11:03:09.221Z,9.90
2018-08-17T11:05:38.723Z,10.73
2018-08-17T11:08:08.263Z,10.50
2018-08-17T11:10:37.746Z,10.50
2018-08-17T11:13:07.519Z,9.87
2018-08-17T11:15:38.001Z,9.93
2018-08-17T11:18:07.949Z,9.60
2018-08-17T11:20:37.673Z,8.50
2018-08-17T11:23:07.396Z,8.70
2018-08-17T11:25:37.107Z,9.28
2018-08-17T11:28:06.815Z,9.10
2018-08-17T11:30:36.798Z,8.33
2018-08-17T11:33:06.802Z,8.28
2018-08-17T11:35:36.433Z,8.35
2018-08-17T11:38:06.739Z,9.10
2018-08-17T11:40:36.546Z,8.28
2018-08-17T11:43:06.148Z,7.70
2018-08-17T11:45:36.141Z,8.30
2018-08-17T11:48:05.981Z,7.80
2018-08-17T11:50:37.472Z,8.90
2018-08-17T11:53:07.196Z,8.53
2018-08-17T11:55:37.076Z,8.03
2018-08-17T11:58:06.778Z,7.67
2018-08-17T12:00:37.336Z,7.80
2018-08-17T12:03:07.958Z,7.97
2018-08-17T12:05:37.775Z,7.30
2018-08-17T12:08:07.663Z,7.72
2018-08-17T12:10:37.460Z,6.80
2018-08-17T12:13:12.517Z,6.90
2018-08-17T12:16:00.040Z,7.67
2018-08-17T12:18:29.645Z,8.00
2018-08-17T12:20:59.509Z,7.80
2018-08-17T12:23:29.137Z,8.00
2018-08-17T12:25:59.074Z,7.45
2018-08-17T12:28:30.004Z,6.78
2018-08-17T12:31:00.074Z,7.40
2018-08-17T12:33:29.793Z,7.37
2018-08-17T12:35:59.393Z,7.40
2018-08-17T12:38:29.049Z,7.67
2018-08-17T12:40:59.358Z,7.97
2018-08-17T12:43:32.877Z,7.30
2018-08-17T12:46:02.505Z,6.30
2018-08-17T12:48:32.136Z,5.30
2018-08-17T12:51:04.940Z,5.45
2018-08-17T12:53:34.561Z,5.10
2018-08-17T12:56:04.264Z,4.60
2018-08-17T12:58:34.095Z,4.30
2018-08-17T13:01:04.109Z,4.67
2018-08-17T13:03:34.050Z,4.95
2018-08-17T13:06:05.384Z,4.95
2018-08-17T13:08:35.123Z,5.28
2018-08-17T13:11:05.105Z,6.33
2018-08-17T13:13:34.926Z,7.92
2018-08-17T13:16:05.689Z,8.83
2018-08-17T13:18:37.704Z,9.38
2018-08-17T13:21:07.622Z,9.90
2018-08-17T13:23:36.834Z,9.30
2018-08-17T13:26:05.934Z,8.83
2018-08-17T13:28:35.634Z,8.75
2018-08-17T13:31:05.477Z,9.40
2018-08-17T13:33:35.107Z,9.35
2018-08-17T13:36:05.201Z,9.98
2018-08-17T13:38:35.019Z,8.95
2018-08-17T13:41:04.602Z,8.25
2018-08-17T13:43:34.200Z,8.55
2018-08-17T13:46:03.995Z,7.25
2018-08-17T13:48:33.750Z,7.42
2018-08-17T13:51:03.528Z,6.92
2018-08-17T13:53:33.114Z,7.22
2018-08-17T13:56:02.912Z,6.78
2018-08-17T13:58:32.522Z,6.97
2018-08-17T14:01:02.109Z,7.17
2018-08-17T14:03:32.981Z,7.45
2018-08-17T14:06:02.701Z,6.90
2018-08-17T14:08:32.502Z,7.20
2018-08-17T14:11:02.113Z,6.42
2018-08-17T14:13:31.689Z,5.95
2018-08-17T14:16:01.878Z,4.85
2018-08-17T14:18:31.517Z,4.70
2018-08-17T14:21:01.189Z,5.25
2018-08-17T14:23:30.852Z,4.87
2018-08-17T14:26:00.611Z,5.20
2018-08-17T14:28:30.424Z,5.30
2018-08-17T14:31:00.442Z,5.40
2018-08-17T14:33:30.358Z,5.25
2018-08-17T14:35:59.985Z,5.47
2018-08-17T14:38:32.974Z,5.55
2018-08-17T14:41:04.310Z,5.87
2018-08-17T14:43:34.299Z,5.90
2018-08-17T14:46:04.210Z,5.53
2018-08-17T14:48:34.172Z,5.85
2018-08-17T14:51:04.189Z,5.87
2018-08-17T14:53:33.915Z,6.62
2018-08-17T14:56:04.007Z,6.87
2018-08-17T14:58:33.790Z,6.75
2018-08-17T15:01:03.603Z,6.80
2018-08-17T15:03:33.418Z,7.15
2018-08-17T15:06:03.192Z,6.60
2018-08-17T15:08:33.281Z,6.78
2018-08-17T15:11:02.896Z,6.87
2018-08-17T15:13:32.450Z,7.30
2018-08-17T15:16:02.394Z,6.72
2018-08-17T15:18:32.090Z,6.67
2018-08-17T15:21:01.889Z,6.62
2018-08-17T15:23:31.567Z,6.83
2018-08-17T15:26:12.987Z,6.92
2018-08-17T15:28:42.654Z,7.47
2018-08-17T15:31:12.709Z,10.45
2018-08-17T15:33:42.321Z,8.55
2018-08-17T15:36:12.083Z,6.87
2018-08-17T15:38:42.687Z,7.08
2018-08-17T15:41:12.769Z,6.87
2018-08-17T15:43:42.517Z,6.58
2018-08-17T15:46:12.799Z,7.05
2018-08-17T15:48:48.031Z,6.95
2018-08-17T15:51:17.972Z,6.67
2018-08-17T15:53:47.701Z,8.83
2018-08-17T15:56:17.328Z,6.58
2018-08-17T15:58:47.240Z,6.65
2018-08-17T16:01:16.966Z,6.70
2018-08-17T16:03:46.749Z,7.25
2018-08-17T16:06:16.401Z,7.25
2018-08-17T16:08:46.044Z,7.80
2018-08-17T16:11:15.669Z,7.08
2018-08-17T16:13:45.368Z,7.25
2018-08-17T16:16:15.356Z,7.40
2018-08-17T16:18:44.963Z,7.70
2018-08-17T16:21:16.288Z,7.45
2018-08-17T16:23:47.254Z,9.53
2018-08-17T16:26:17.277Z,11.20
2018-08-17T16:28:46.975Z,8.43
2018-08-17T16:31:16.612Z,7.83
2018-08-17T16:33:46.743Z,8.00
2018-08-17T16:36:16.787Z,7.42
2018-08-17T16:38:46.381Z,7.75
2018-08-17T16:41:15.990Z,8.48
2018-08-17T16:43:47.550Z,7.85
2018-08-17T16:46:17.156Z,7.97
2018-08-17T16:48:46.994Z,8.23
2018-08-17T16:51:16.753Z,8.18
2018-08-17T16:53:46.452Z,8.45
2018-08-17T16:56:16.041Z,8.48
2018-08-17T16:58:45.649Z,8.70
2018-08-17T17:01:15.406Z,8.20
2018-08-17T17:03:45.073Z,8.30
2018-08-17T17:06:14.930Z,8.88
2018-08-17T17:08:44.534Z,8.40
2018-08-17T17:11:14.145Z,8.48
2018-08-17T17:13:44.092Z,9.38
2018-08-17T17:16:13.851Z,9.05
2018-08-17T17:18:42.896Z,8.80
2018-08-17T17:21:11.964Z,9.23
2018-08-17T17:23:45.268Z,9.57
2018-08-17T17:26:14.668Z,9.60
2018-08-17T17:28:43.683Z,9.90
2018-08-17T17:31:16.623Z,9.70
2018-08-17T17:33:46.006Z,9.87
2018-08-17T17:36:15.304Z,10.83
2018-08-17T17:38:44.438Z,10.63
2018-08-17T17:41:13.541Z,10.17
2018-08-17T17:43:42.589Z,10.27
2018-08-17T17:46:11.698Z,10.80
2018-08-17T17:48:40.740Z,10.93
2018-08-17T17:51:10.125Z,10.10
2018-08-17T17:53:39.179Z,10.20
2018-08-17T17:56:08.273Z,10.23
2018-08-17T17:58:37.315Z,10.90
2018-08-17T18:01:08.015Z,10.03
2018-08-17T18:03:37.030Z,10.23
2018-08-17T18:06:07.438Z,11.50
2018-08-17T18:08:36.599Z,11.13
2018-08-17T18:11:06.046Z,10.60
2018-08-17T18:13:35.108Z,10.80
2018-08-17T18:16:04.137Z,11.10
2018-08-17T18:18:33.549Z,11.37
2018-08-17T18:21:03.226Z,11.60
2018-08-17T18:23:32.252Z,11.07
2018-08-17T18:26:01.298Z,12.47
2018-08-17T18:28:30.345Z,11.90
2018-08-17T18:30:59.390Z,11.40
2018-08-17T18:33:28.430Z,11.03
2018-08-17T18:35:57.905Z,11.43
2018-08-17T18:38:26.962Z,10.77
2018-08-17T18:40:56.368Z,11.07
2018-08-17T18:43:25.500Z,11.17
2018-08-17T18:45:54.942Z,10.37
2018-08-17T18:48:23.961Z,11.00
2018-08-17T18:50:53.045Z,10.77
2018-08-17T18:53:22.087Z,10.03
2018-08-17T18:55:51.085Z,10.77
2018-08-17T18:58:21.005Z,10.37
2018-08-17T19:00:50.159Z,10.80
2018-08-17T19:03:21.629Z,9.83
2018-08-17T19:05:51.089Z,10.77
2018-08-17T19:08:20.144Z,9.70
2018-08-17T19:10:49.294Z,9.33
2018-08-17T19:13:18.339Z,9.60
2018-08-17T19:15:55.804Z,9.73
2018-08-17T19:18:30.921Z,9.40
2018-08-17T19:21:07.171Z,8.77
2018-08-17T19:23:36.713Z,8.83
2018-08-17T19:26:06.428Z,8.47
2018-08-17T19:28:35.590Z,7.77
2018-08-17T19:31:04.939Z,7.77
2018-08-17T19:33:36.381Z,7.80
2018-08-17T19:36:07.917Z,8.03
2018-08-17T19:38:41.844Z,7.87
2018-08-17T19:41:11.139Z,8.40
2018-08-17T19:43:40.203Z,7.90
2018-08-17T19:46:09.462Z,8.07
2018-08-17T19:48:39.113Z,7.80
2018-08-17T19:51:13.654Z,7.93
2018-08-17T19:53:42.720Z,8.53
2018-08-17T19:56:12.469Z,8.20
2018-08-17T19:58:41.956Z,7.83
2018-08-17T20:01:11.089Z,7.67
2018-08-17T20:03:40.116Z,8.37
2018-08-17T20:06:09.386Z,8.07
2018-08-17T20:08:38.425Z,8.20
2018-08-17T20:11:07.432Z,7.60
2018-08-17T20:13:36.451Z,8.07
2018-08-17T20:16:10.200Z,7.80
2018-08-17T20:18:39.235Z,8.43
2018-08-17T20:21:08.328Z,7.30
2018-08-17T20:23:37.383Z,7.60
2018-08-17T20:26:06.581Z,7.70
2018-08-17T20:28:35.708Z,7.77
2018-08-17T20:31:05.041Z,7.37
2018-08-17T20:33:34.127Z,7.67
2018-08-17T20:36:03.554Z,8.10
2018-08-17T20:38:32.995Z,7.87
2018-08-17T20:41:02.242Z,8.20
2018-08-17T20:43:31.486Z,8.37
2018-08-17T20:46:00.944Z,7.90
2018-08-17T20:48:30.145Z,8.00
2018-08-17T20:51:03.635Z,8.17
2018-08-17T20:53:32.920Z,8.50
2018-08-17T20:56:02.475Z,8.33
2018-08-17T20:58:31.548Z,8.30
2018-08-17T21:01:00.600Z,8.10
2018-08-17T21:03:29.677Z,8.00
2018-08-17T21:05:59.064Z,8.40
2018-08-17T21:08:28.091Z,8.80
2018-08-17T21:10:57.301Z,8.50
2018-08-17T21:13:26.359Z,8.67
2018-08-17T21:15:55.395Z,8.87
2018-08-17T21:18:24.456Z,8.60
2018-08-17T21:20:53.498Z,8.17
2018-08-17T21:23:22.556Z,8.43
2018-08-17T21:25:51.908Z,7.70
2018-08-17T21:28:20.960Z,8.10
2018-08-17T21:30:50.056Z,8.30
2018-08-17T21:33:19.291Z,8.23
2018-08-17T21:35:48.319Z,8.60
2018-08-17T21:38:17.400Z,8.50
2018-08-17T21:40:46.486Z,8.13
2018-08-17T21:43:16.166Z,8.30
2018-08-17T21:45:45.792Z,8.63
2018-08-17T21:48:20.137Z,8.67
2018-08-17T21:50:49.189Z,8.13
2018-08-17T21:53:18.227Z,8.27
2018-08-17T21:55:47.282Z,8.30
2018-08-17T21:58:16.490Z,8.07
2018-08-17T22:00:45.590Z,8.67
2018-08-17T22:03:27.304Z,8.63
2018-08-17T22:05:56.346Z,8.73
2018-08-17T22:08:25.490Z,8.80
2018-08-17T22:10:54.951Z,8.93
2018-08-17T22:13:32.713Z,9.00
2018-08-17T22:16:02.211Z,9.33
2018-08-17T22:18:31.712Z,8.57
2018-08-17T22:21:01.036Z,8.40
2018-08-17T22:23:31.021Z,8.70
2018-08-17T22:26:00.115Z,8.60
2018-08-17T22:28:29.270Z,8.23
2018-08-17T22:30:58.651Z,8.33
2018-08-17T22:33:27.737Z,7.87
2018-08-17T22:35:56.840Z,7.93
2018-08-17T22:38:29.751Z,8.47
2018-08-17T22:40:58.857Z,8.67
2018-08-17T22:43:27.912Z,8.30
2018-08-17T22:45:56.988Z,8.30
2018-08-17T22:48:26.075Z,8.07
2018-08-17T22:50:55.258Z,8.07
2018-08-17T22:53:24.345Z,7.90
2018-08-17T22:55:53.409Z,8.17
2018-08-17T22:58:22.531Z,7.77
2018-08-17T23:00:51.516Z,8.13
2018-08-17T23:03:20.554Z,7.97
2018-08-17T23:05:49.928Z,8.20
2018-08-17T23:08:19.053Z,8.30
2018-08-17T23:10:48.044Z,7.97
2018-08-17T23:13:17.126Z,7.83
2018-08-17T23:15:46.372Z,7.50
2018-08-17T23:18:15.381Z,7.53
2018-08-17T23:20:44.398Z,7.73
2018-08-17T23:23:13.475Z,7.77
2018-08-17T23:25:42.505Z,7.97
2018-08-17T23:28:11.565Z,8.07
2018-08-17T23:30:40.594Z,8.03
2018-08-17T23:33:10.065Z,8.93
2018-08-17T23:35:39.091Z,8.00
2018-08-17T23:38:08.098Z,7.80
2018-08-17T23:40:37.242Z,7.50
2018-08-17T23:43:06.992Z,8.20
2018-08-17T23:45:36.395Z,8.20
2018-08-17T23:48:05.430Z,8.60
2018-08-17T23:50:34.844Z,8.07
2018-08-17T23:53:03.883Z,7.70
2018-08-17T23:55:33.436Z,7.87
2018-08-17T23:58:02.520Z,7.60
